createdAt,value
2022-08-20T00:03:00.511Z,7.10
2022-08-20T00:08:04.261Z,7.00
2022-08-20T00:13:09.286Z,8.50
2022-08-20T00:18:16.921Z,8.80
2022-08-20T00:23:21.014Z,7.80
2022-08-20T00:28:23.688Z,7.70
2022-08-20T00:33:26.726Z,8.80
2022-08-20T00:38:29.603Z,8.50
2022-08-20T00:43:32.276Z,8.10
2022-08-20T00:48:38.485Z,8.30
2022-08-20T00:53:42.610Z,8.40
2022-08-20T00:58:46.061Z,7.80
2022-08-20T01:03:50.430Z,8.00
2022-08-20T01:08:53.248Z,8.00
2022-08-20T01:13:57.729Z,7.40
2022-08-20T01:19:02.020Z,7.80
2022-08-20T01:24:27.562Z,8.10
2022-08-20T01:29:37.155Z,8.10
2022-08-20T01:34:40.169Z,7.50
2022-08-20T01:39:43.329Z,7.70
2022-08-20T01:44:47.574Z,7.80
2022-08-20T01:49:53.901Z,7.50
2022-08-20T01:54:57.019Z,7.80
2022-08-20T01:59:59.709Z,8.00
2022-08-20T02:05:02.600Z,6.70
2022-08-20T02:10:11.743Z,6.70
2022-08-20T02:15:15.123Z,7.70
2022-08-20T02:20:27.211Z,7.70
2022-08-20T02:25:32.877Z,7.50
2022-08-20T02:35:46.840Z,6.60
2022-08-20T02:40:52.025Z,7.20
2022-08-20T02:45:55.803Z,7.60
2022-08-20T02:51:04.090Z,6.80
2022-08-20T02:56:06.918Z,7.30
2022-08-20T03:01:13.582Z,7.30
2022-08-20T03:06:16.662Z,7.70
2022-08-20T03:11:20.706Z,7.00
2022-08-20T03:16:23.349Z,7.00
2022-08-20T03:21:26.736Z,7.60
2022-08-20T03:26:29.489Z,7.90
2022-08-20T03:31:32.919Z,8.00
2022-08-20T03:36:35.934Z,6.80
2022-08-20T03:41:39.339Z,8.00
2022-08-20T03:46:42.166Z,8.40
2022-08-20T03:51:57.992Z,7.40
2022-08-20T03:57:03.027Z,8.20
2022-08-20T04:02:15.553Z,8.60
2022-08-20T04:07:25.959Z,7.40
2022-08-20T04:12:29.245Z,8.00
2022-08-20T04:17:33.638Z,8.10
2022-08-20T04:22:37.003Z,8.00
2022-08-20T04:27:42.102Z,7.60
2022-08-20T04:32:45.154Z,7.60
2022-08-20T04:37:48.805Z,7.30
2022-08-20T04:42:51.871Z,8.60
2022-08-20T04:47:57.008Z,8.90
2022-08-20T04:52:59.898Z,8.20
2022-08-20T04:58:08.201Z,8.00
2022-08-20T05:03:11.288Z,9.00
2022-08-20T05:08:20.028Z,9.30
2022-08-20T05:13:27.206Z,7.90
2022-08-20T05:18:35.389Z,8.10
2022-08-20T05:23:42.846Z,7.80
2022-08-20T05:28:57.298Z,8.40
2022-08-20T05:34:10.418Z,7.70
2022-08-20T05:39:14.852Z,7.40
2022-08-20T05:44:19.108Z,7.90
2022-08-20T05:49:21.970Z,8.80
2022-08-20T05:54:24.701Z,8.80
2022-08-20T05:59:27.678Z,7.40
2022-08-20T06:04:32.226Z,7.40
2022-08-20T06:09:36.457Z,7.60
2022-08-20T06:14:39.450Z,8.30
2022-08-20T06:19:44.524Z,6.80
2022-08-20T06:24:47.461Z,7.10
2022-08-20T06:29:51.344Z,7.60
2022-08-20T06:34:54.069Z,7.20
2022-08-20T06:40:02.637Z,6.80
2022-08-20T06:45:06.150Z,7.80
2022-08-20T06:50:13.359Z,6.60
2022-08-20T06:55:17.561Z,8.10
2022-08-20T07:00:20.912Z,8.10
2022-08-20T07:05:24.162Z,6.70
2022-08-20T07:10:30.355Z,7.10
2022-08-20T07:15:33.752Z,7.10
2022-08-20T07:20:38.270Z,6.70
2022-08-20T07:25:43.082Z,7.00
2022-08-20T07:31:12.295Z,7.00
2022-08-20T07:36:17.795Z,8.00
2022-08-20T07:41:20.900Z,6.80
2022-08-20T07:46:25.049Z,7.40
2022-08-20T07:51:34.516Z,7.00
2022-08-20T07:56:37.191Z,7.20
2022-08-20T08:01:40.298Z,7.50
2022-08-20T08:06:45.417Z,8.10
2022-08-20T08:11:50.544Z,8.40
2022-08-20T08:16:57.449Z,7.70
2022-08-20T08:22:00.769Z,7.70
2022-08-20T08:27:04.396Z,8.90
2022-08-20T08:32:07.785Z,8.70
2022-08-20T08:37:10.490Z,8.40
2022-08-20T08:42:28.734Z,8.10
2022-08-20T08:47:35.976Z,8.30
2022-08-20T08:52:41.295Z,7.90
2022-08-20T08:57:44.272Z,8.00
2022-08-20T09:03:04.841Z,7.40
2022-08-20T09:08:17.181Z,8.40
2022-08-20T09:13:20.205Z,7.80
2022-08-20T09:18:22.922Z,7.50
2022-08-20T09:23:25.623Z,7.10
2022-08-20T09:28:32.518Z,7.80
2022-08-20T09:33:37.983Z,7.70
2022-08-20T09:38:40.863Z,7.50
2022-08-20T09:43:43.629Z,8.00
2022-08-20T09:48:46.348Z,7.80
2022-08-20T09:53:50.282Z,7.80
2022-08-20T09:58:56.488Z,8.20
2022-08-20T10:04:00.752Z,7.50
2022-08-20T10:09:03.554Z,8.20
2022-08-20T10:14:07.420Z,8.60
2022-08-20T10:19:10.283Z,7.30
2022-08-20T10:24:13.078Z,8.10
2022-08-20T10:29:16.858Z,7.90
2022-08-20T10:34:19.953Z,7.80
2022-08-20T10:39:22.645Z,8.50
2022-08-20T10:44:25.418Z,7.70
2022-08-20T10:49:34.257Z,8.10
2022-08-20T10:54:37.105Z,8.40
2022-08-20T10:59:42.449Z,8.10
2022-08-20T11:04:45.893Z,8.30
2022-08-20T11:09:49.733Z,8.10
2022-08-20T11:14:53.642Z,8.30
2022-08-20T11:19:58.220Z,8.10
2022-08-20T11:25:00.958Z,8.90
2022-08-20T11:30:04.945Z,8.10
2022-08-20T11:35:24.929Z,8.30
2022-08-20T11:40:31.631Z,8.40
2022-08-20T11:45:37.494Z,8.50
2022-08-20T11:50:41.313Z,8.20
2022-08-20T11:55:44.334Z,7.80
2022-08-20T12:00:47.060Z,9.30
2022-08-20T12:05:50.176Z,8.70
2022-08-20T12:10:52.858Z,9.00
2022-08-20T12:15:55.962Z,9.30
2022-08-20T12:20:58.904Z,9.30
2022-08-20T12:26:03.365Z,8.50
2022-08-20T12:31:06.605Z,9.10
2022-08-20T12:36:09.467Z,8.50
2022-08-20T12:41:12.329Z,9.10
2022-08-20T12:46:15.074Z,9.00
2022-08-20T12:51:17.895Z,9.40
2022-08-20T12:56:20.594Z,9.00
2022-08-20T13:01:23.433Z,9.00
2022-08-20T13:06:26.298Z,9.30
2022-08-20T13:11:31.207Z,9.40
2022-08-20T13:16:34.058Z,8.80
2022-08-20T13:21:36.968Z,9.30
2022-08-20T13:26:39.711Z,9.50
2022-08-20T13:31:42.757Z,9.30
2022-08-20T13:36:45.443Z,9.90
2022-08-20T13:41:48.479Z,9.50
2022-08-20T13:46:51.148Z,10.30
2022-08-20T13:51:55.393Z,10.20
2022-08-20T13:57:11.251Z,9.70
2022-08-20T14:02:15.366Z,9.30
2022-08-20T14:07:22.710Z,10.00
2022-08-20T14:12:26.672Z,8.70
2022-08-20T14:17:36.193Z,8.60
2022-08-20T14:22:40.043Z,9.00
2022-08-20T14:27:43.083Z,9.00
2022-08-20T14:32:45.931Z,9.40
2022-08-20T14:37:56.667Z,9.10
2022-08-20T14:42:59.885Z,9.10
2022-08-20T14:48:07.386Z,8.90
2022-08-20T14:53:10.347Z,7.70
2022-08-20T14:58:15.297Z,7.70
2022-08-20T15:08:20.597Z,6.80
2022-08-20T15:13:23.317Z,6.40
2022-08-20T15:18:27.065Z,6.30
2022-08-20T15:23:29.792Z,6.00
2022-08-20T15:28:32.811Z,6.30
2022-08-20T15:33:35.603Z,6.50
2022-08-20T15:38:38.778Z,6.30
2022-08-20T15:43:41.740Z,5.50
2022-08-20T15:48:47.259Z,5.20
2022-08-20T15:54:05.454Z,5.60
2022-08-20T15:59:45.992Z,5.30
2022-08-20T16:04:51.331Z,6.40
2022-08-20T16:10:02.284Z,6.90
2022-08-20T16:15:11.910Z,7.40
2022-08-20T16:20:26.028Z,7.00
2022-08-20T16:26:10.413Z,7.40
2022-08-20T16:36:38.894Z,7.00
2022-08-20T16:41:45.281Z,6.90
2022-08-20T16:47:01.725Z,7.30
2022-08-20T16:52:17.180Z,7.50
2022-08-20T16:57:20.029Z,7.70
2022-08-20T17:02:23.371Z,7.90
2022-08-20T17:07:43.112Z,7.90
2022-08-20T17:12:51.373Z,7.50
2022-08-20T17:17:55.908Z,9.00
2022-08-20T17:23:18.472Z,9.40
2022-08-20T17:28:23.317Z,9.00
2022-08-20T17:33:39.411Z,8.80
2022-08-20T17:38:51.801Z,8.60
2022-08-20T17:43:59.548Z,9.20
2022-08-20T17:49:07.806Z,9.00
2022-08-20T17:54:20.016Z,8.70
2022-08-20T18:00:00.305Z,9.40
2022-08-20T18:05:06.687Z,9.50
2022-08-20T18:10:16.249Z,9.30
2022-08-20T18:15:26.146Z,9.20
2022-08-20T18:20:49.798Z,10.20
2022-08-20T18:26:03.873Z,9.40
2022-08-20T18:31:09.072Z,10.20
2022-08-20T18:36:26.513Z,9.40
2022-08-20T18:41:41.075Z,10.80
2022-08-20T18:47:02.083Z,10.30
2022-08-20T18:52:15.951Z,9.50
2022-08-20T18:57:28.607Z,10.10
2022-08-20T19:03:01.042Z,9.40
2022-08-20T19:08:05.914Z,9.20
2022-08-20T19:13:40.146Z,9.60
2022-08-20T19:18:47.555Z,9.40
2022-08-20T19:23:54.270Z,6.00
2022-08-20T19:29:08.929Z,5.80
2022-08-20T19:34:19.065Z,5.40
2022-08-20T19:39:26.649Z,5.10
2022-08-20T19:44:40.845Z,4.80
2022-08-20T19:49:52.182Z,7.10
2022-08-20T19:55:02.792Z,9.00
2022-08-20T20:00:12.505Z,10.90
2022-08-20T20:05:16.686Z,10.00
2022-08-20T20:10:38.720Z,8.40
2022-08-20T20:15:43.806Z,9.20
2022-08-20T20:20:57.492Z,9.20
2022-08-20T20:26:07.430Z,8.10
2022-08-20T20:31:14.674Z,9.60
2022-08-20T20:36:29.977Z,8.00
2022-08-20T20:41:34.959Z,5.20
2022-08-20T20:46:39.606Z,4.50
2022-08-20T20:51:53.666Z,4.20
2022-08-20T20:57:00.960Z,4.60
2022-08-20T21:02:04.264Z,3.70
2022-08-20T21:07:10.719Z,4.00
2022-08-20T21:12:14.201Z,3.40
2022-08-20T21:17:21.510Z,3.70
2022-08-20T21:22:24.358Z,2.90
2022-08-20T21:27:28.341Z,3.40
2022-08-20T21:32:31.143Z,3.90
2022-08-20T21:37:33.836Z,4.10
2022-08-20T21:42:38.894Z,3.60
2022-08-20T21:47:42.280Z,4.00
2022-08-20T21:52:55.347Z,3.80
2022-08-20T21:58:04.448Z,4.00
2022-08-20T22:03:07.353Z,3.80
2022-08-20T22:08:10.882Z,4.10
2022-08-20T22:13:14.024Z,4.00
2022-08-20T22:18:17.278Z,5.30
2022-08-20T22:23:20.311Z,5.20
2022-08-20T22:28:23.318Z,4.70
2022-08-20T22:33:26.358Z,5.50
2022-08-20T22:38:29.375Z,6.30
2022-08-20T22:43:32.097Z,7.40
2022-08-20T22:48:34.993Z,7.00
2022-08-20T22:53:45.645Z,8.30
2022-08-20T22:58:48.338Z,6.50
2022-08-20T23:03:53.610Z,7.30
2022-08-20T23:08:56.370Z,7.30
2022-08-20T23:13:59.294Z,7.50
2022-08-20T23:19:02.037Z,7.30
2022-08-20T23:24:05.602Z,8.30
2022-08-20T23:29:12.414Z,7.20
2022-08-20T23:39:17.829Z,8.10
2022-08-20T23:44:26.410Z,7.40
2022-08-20T23:49:31.780Z,8.30
2022-08-20T23:54:34.499Z,8.30
2022-08-20T23:59:37.347Z,7.70
